Terminal Aerodrome Forecast
Issued by NWS Amarillo, TX

Home | Current Version | Previous Version | Text Only | Print | Product List | Glossary On
Versions: 1 2 3 4 5 6 7 8 9 10 11 12 13 14 15 16 17 18
000
FTUS44 KAMA 020500
TAFDHT
TAF
KDHT 020535Z 0206/0306 34016G23KT P6SM SCT100
     FM020900 35025G36KT P6SM SCT100
     FM022100 35015G22KT P6SM SKC
     FM030000 VRB06KT P6SM SKC=

USA.gov is the U.S. government's official web portal to all federal, state and local government web resources and services.